Time;durP1;ratioP1;P1;durP2;ratioP2;P2;SDS_P1;SDS_P2;PMS_P1;PMS_P2;Temp;Humidity;BMP_temperature;BMP_pressure;BME280_temperature;BME280_humidity;BME280_pressure;Samples;Min_cycle;Max_cycle;Signal;HPM_P1;HPM_P2
2021/09/13 00:01:38;;;;;;;1999.90;999.90;;;;;;;;;;5055831;28;20461;-83
2021/09/13 00:04:05;;;;;;;1999.90;999.90;;;;;;;;;;5049944;28;20455;-85
2021/09/13 00:06:32;;;;;;;1999.90;999.90;;;;;;;;;;5057144;28;20457;-83
2021/09/13 00:09:00;;;;;;;1999.90;999.90;;;;;;;;;;5057253;28;21043;-84
2021/09/13 00:11:28;;;;;;;1999.90;999.90;;;;;;;;;;5052604;28;20455;-84
2021/09/13 00:13:55;;;;;;;1999.90;999.90;;;;;;;;;;5054445;28;20454;-85
2021/09/13 00:16:22;;;;;;;1999.90;999.90;;;;;;;;;;5052932;28;20462;-85
2021/09/13 00:18:49;;;;;;;1999.90;999.90;;;;;;;;;;5053558;28;20471;-85
2021/09/13 00:21:16;;;;;;;1999.90;999.90;;;;;;;;;;5053624;28;20452;-85
2021/09/13 00:23:43;;;;;;;1999.90;999.90;;;;;;;;;;5053572;28;20459;-84
2021/09/13 00:26:10;;;;;;;1999.90;999.90;;;;;;;;;;5053103;28;20452;-83
2021/09/13 00:28:39;;;;;;;1999.90;999.90;;;;;;;;;;5037333;28;20484;-84
2021/09/13 00:31:06;;;;;;;1999.90;999.90;;;;;;;;;;5034247;28;21034;-84
2021/09/13 00:33:33;;;;;;;1999.90;999.90;;;;;;;;;;5053520;28;20452;-84
2021/09/13 00:36:01;;;;;;;1999.90;999.90;;;;;;;;;;5053814;28;20928;-84
2021/09/13 00:38:28;;;;;;;1999.90;999.90;;;;;;;;;;5052872;28;20995;-84
2021/09/13 00:40:55;;;;;;;1999.90;999.90;;;;;;;;;;5053175;28;20444;-84
2021/09/13 00:43:22;;;;;;;1999.90;999.90;;;;;;;;;;5053553;28;20458;-84
2021/09/13 00:45:51;;;;;;;1999.90;999.90;;;;;;;;;;5035027;28;20456;-85
2021/09/13 00:48:18;;;;;;;1999.90;999.90;;;;;;;;;;5032655;28;20495;-85
2021/09/13 00:50:45;;;;;;;1999.90;999.90;;;;;;;;;;5043013;28;20493;-85
2021/09/13 00:53:12;;;;;;;1999.90;999.90;;;;;;;;;;5048238;28;20453;-85
2021/09/13 00:55:39;;;;;;;1999.90;999.90;;;;;;;;;;5050222;28;20453;-85
2021/09/13 00:58:07;;;;;;;1999.90;999.90;;;;;;;;;;5051654;28;20489;-85
2021/09/13 01:00:34;;;;;;;1999.90;999.90;;;;;;;;;;5054174;28;20456;-85
2021/09/13 01:03:03;;;;;;;1999.90;999.90;;;;;;;;;;5051574;28;20466;-85
2021/09/13 01:05:30;;;;;;;1999.90;999.90;;;;;;;;;;5054045;28;20468;-85
2021/09/13 01:07:57;;;;;;;1999.90;999.90;;;;;;;;;;5052925;28;20468;-85
2021/09/13 01:10:27;;;;;;;1999.90;999.90;;;;;;;;;;5054238;28;20490;-85
2021/09/13 01:12:54;;;;;;;1999.90;999.90;;;;;;;;;;5054068;28;20506;-84
2021/09/13 01:15:21;;;;;;;1999.90;999.90;;;;;;;;;;5053071;28;20459;-85
2021/09/13 01:17:48;;;;;;;1999.90;999.90;;;;;;;;;;5052068;28;20475;-84
2021/09/13 01:20:17;;;;;;;1999.90;999.90;;;;;;;;;;5033073;28;20452;-84
2021/09/13 01:22:46;;;;;;;1999.90;999.90;;;;;;;;;;5033217;28;20450;-84
2021/09/13 01:25:15;;;;;;;1999.90;999.90;;;;;;;;;;5032581;28;20452;-84
2021/09/13 01:27:42;;;;;;;1999.90;999.90;;;;;;;;;;5031785;28;20479;-84
2021/09/13 01:30:10;;;;;;;1999.90;999.90;;;;;;;;;;5032136;28;20487;-83
2021/09/13 01:32:37;;;;;;;1999.90;999.90;;;;;;;;;;5045514;28;20449;-85
2021/09/13 01:35:05;;;;;;;1999.90;999.90;;;;;;;;;;5051868;28;20451;-84
2021/09/13 01:37:32;;;;;;;1999.90;999.90;;;;;;;;;;5051012;28;20483;-84
2021/09/13 01:39:59;;;;;;;1999.90;999.90;;;;;;;;;;5052387;28;20451;-84
2021/09/13 01:42:27;;;;;;;1999.90;999.90;;;;;;;;;;5051870;28;20552;-84
2021/09/13 01:44:54;;;;;;;1999.90;999.90;;;;;;;;;;5052429;28;20454;-85
2021/09/13 01:47:22;;;;;;;1999.90;999.90;;;;;;;;;;5051659;28;20492;-83
2021/09/13 01:49:49;;;;;;;1999.90;999.90;;;;;;;;;;5051271;28;20486;-84
2021/09/13 01:52:16;;;;;;;1999.90;999.90;;;;;;;;;;5052351;28;20457;-85
2021/09/13 01:54:43;;;;;;;1999.90;999.90;;;;;;;;;;5052408;28;20446;-85
2021/09/13 01:57:10;;;;;;;1999.90;999.90;;;;;;;;;;5051421;28;20450;-84
2021/09/13 01:59:39;;;;;;;1999.90;999.90;;;;;;;;;;5052094;28;20464;-83
2021/09/13 02:02:06;;;;;;;1999.90;999.90;;;;;;;;;;5050522;28;20463;-83
2021/09/13 02:04:33;;;;;;;1999.90;999.90;;;;;;;;;;5032571;28;20459;-85
2021/09/13 02:07:01;;;;;;;1999.90;999.90;;;;;;;;;;5031694;28;20838;-84
2021/09/13 02:09:28;;;;;;;1999.90;999.90;;;;;;;;;;5033641;28;20455;-84
2021/09/13 02:11:55;;;;;;;1999.90;999.90;;;;;;;;;;5035979;28;20816;-84
2021/09/13 02:14:22;;;;;;;1999.90;999.90;;;;;;;;;;5036393;28;20458;-85
2021/09/13 02:16:50;;;;;;;1999.90;999.90;;;;;;;;;;5036616;28;20813;-85
2021/09/13 02:19:18;;;;;;;1999.90;999.90;;;;;;;;;;5039872;28;20483;-84
2021/09/13 02:21:45;;;;;;;1999.90;999.90;;;;;;;;;;5056205;28;20451;-84
2021/09/13 02:24:12;;;;;;;1999.90;999.90;;;;;;;;;;5055553;28;20438;-84
2021/09/13 02:26:39;;;;;;;1999.90;999.90;;;;;;;;;;5055336;28;20443;-84
2021/09/13 02:29:06;;;;;;;1999.90;999.90;;;;;;;;;;5055467;28;20471;-84
2021/09/13 02:31:33;;;;;;;1999.90;999.90;;;;;;;;;;5051309;28;20490;-84
2021/09/13 02:34:02;;;;;;;1999.90;999.90;;;;;;;;;;5035782;28;20454;-85
2021/09/13 02:36:29;;;;;;;1999.90;999.90;;;;;;;;;;5035330;28;20452;-83
2021/09/13 02:38:56;;;;;;;1999.90;999.90;;;;;;;;;;5035768;28;20480;-84
2021/09/13 02:41:23;;;;;;;1999.90;999.90;;;;;;;;;;5035674;28;20446;-84
2021/09/13 02:43:50;;;;;;;1999.90;999.90;;;;;;;;;;5035556;28;20448;-85
2021/09/13 02:46:18;;;;;;;1999.90;999.90;;;;;;;;;;5034626;28;20457;-83
2021/09/13 02:48:45;;;;;;;1999.90;999.90;;;;;;;;;;5035660;28;20468;-84
2021/09/13 02:51:14;;;;;;;1999.90;999.90;;;;;;;;;;5035080;28;20492;-84
2021/09/13 02:53:41;;;;;;;1999.90;999.90;;;;;;;;;;5044858;28;20466;-85
2021/09/13 02:56:08;;;;;;;1999.90;999.90;;;;;;;;;;5055341;28;20452;-83
2021/09/13 02:58:35;;;;;;;1999.90;999.90;;;;;;;;;;5055400;28;20472;-84
2021/09/13 03:01:02;;;;;;;1999.90;999.90;;;;;;;;;;5055505;28;20451;-84
2021/09/13 03:03:29;;;;;;;1999.90;999.90;;;;;;;;;;5055234;28;20449;-84
2021/09/13 03:05:57;;;;;;;1999.90;999.90;;;;;;;;;;5055784;28;20530;-84
2021/09/13 03:08:25;;;;;;;1999.90;999.90;;;;;;;;;;5054962;28;20465;-84
2021/09/13 03:10:53;;;;;;;1999.90;999.90;;;;;;;;;;5051584;28;20480;-84
2021/09/13 03:13:20;;;;;;;1999.90;999.90;;;;;;;;;;5055342;28;20455;-85
2021/09/13 03:15:47;;;;;;;1999.90;999.90;;;;;;;;;;5055145;28;20984;-85
2021/09/13 03:18:14;;;;;;;1999.90;999.90;;;;;;;;;;5054387;28;20631;-88
2021/09/13 03:20:41;;;;;;;1999.90;999.90;;;;;;;;;;5054864;28;20817;-86
2021/09/13 03:23:08;;;;;;;1999.90;999.90;;;;;;;;;;5055257;28;20543;-86
2021/09/13 03:25:37;;;;;;;1999.90;999.90;;;;;;;;;;5055688;28;20448;-85
2021/09/13 03:28:04;;;;;;;1999.90;999.90;;;;;;;;;;5039519;28;20519;-84
2021/09/13 03:30:31;;;;;;;1999.90;999.90;;;;;;;;;;5035489;28;20506;-86
2021/09/13 03:32:59;;;;;;;1999.90;999.90;;;;;;;;;;5051463;28;20456;-84
2021/09/13 03:35:26;;;;;;;1999.90;999.90;;;;;;;;;;5054977;28;20818;-83
2021/09/13 03:37:53;;;;;;;1999.90;999.90;;;;;;;;;;5053443;28;20494;-84
2021/09/13 03:40:20;;;;;;;1999.90;999.90;;;;;;;;;;5054306;28;20451;-84
2021/09/13 03:42:48;;;;;;;1999.90;999.90;;;;;;;;;;5054120;28;20454;-84
2021/09/13 03:45:15;;;;;;;1999.90;999.90;;;;;;;;;;5034647;28;20456;-84
2021/09/13 03:47:42;;;;;;;1999.90;999.90;;;;;;;;;;5033671;28;20465;-83
2021/09/13 03:50:10;;;;;;;1999.90;999.90;;;;;;;;;;5034570;28;20447;-83
2021/09/13 03:52:37;;;;;;;1999.90;999.90;;;;;;;;;;5034691;28;20449;-83
2021/09/13 03:55:04;;;;;;;1999.90;999.90;;;;;;;;;;5051979;28;20445;-83
2021/09/13 03:57:32;;;;;;;1999.90;999.90;;;;;;;;;;5054018;28;20476;-83
2021/09/13 04:00:00;;;;;;;1999.90;999.90;;;;;;;;;;5052738;28;20973;-83
2021/09/13 04:02:28;;;;;;;1999.90;999.90;;;;;;;;;;5040785;28;20455;-82
2021/09/13 04:04:55;;;;;;;1999.90;999.90;;;;;;;;;;5045184;28;20463;-83
2021/09/13 04:07:25;;;;;;;1999.90;999.90;;;;;;;;;;5047814;28;20480;-83
2021/09/13 04:10:13;;;;;;;1999.90;999.90;;;;;;;;;;5041524;28;20517;-83
2021/09/13 04:12:40;;;;;;;1999.90;999.90;;;;;;;;;;5050663;28;20432;-83
2021/09/13 04:15:09;;;;;;;1999.90;999.90;;;;;;;;;;5054127;28;20478;-80
2021/09/13 04:17:37;;;;;;;1999.90;999.90;;;;;;;;;;5041203;28;20484;-82
2021/09/13 04:20:04;;;;;;;1999.90;999.90;;;;;;;;;;5048390;28;20453;-82
2021/09/13 04:22:32;;;;;;;1999.90;999.90;;;;;;;;;;5033185;28;20453;-82
2021/09/13 04:25:00;;;;;;;1999.90;999.90;;;;;;;;;;5033634;28;20451;-82
2021/09/13 04:27:27;;;;;;;1999.90;999.90;;;;;;;;;;5033110;28;20469;-82
2021/09/13 04:29:54;;;;;;;1999.90;999.90;;;;;;;;;;5033496;28;20457;-82
2021/09/13 04:32:23;;;;;;;1999.90;999.90;;;;;;;;;;5032697;28;20495;-81
2021/09/13 04:34:50;;;;;;;1999.90;999.90;;;;;;;;;;5039251;28;20452;-82
2021/09/13 04:37:18;;;;;;;1999.90;999.90;;;;;;;;;;5052319;28;20476;-82
2021/09/13 04:39:45;;;;;;;1999.90;999.90;;;;;;;;;;5043466;22;20498;-87
2021/09/13 04:42:12;;;;;;;1999.90;999.90;;;;;;;;;;5028463;28;20454;-86
2021/09/13 04:44:39;;;;;;;1999.90;999.90;;;;;;;;;;5013307;28;20456;-87
2021/09/13 04:47:06;;;;;;;1999.90;999.90;;;;;;;;;;5012098;28;20522;-87
2021/09/13 04:49:35;;;;;;;1999.90;999.90;;;;;;;;;;5012676;28;20552;-87
2021/09/13 04:52:02;;;;;;;1999.90;999.90;;;;;;;;;;5012901;28;20490;-88
2021/09/13 04:54:29;;;;;;;1999.90;999.90;;;;;;;;;;5006709;28;20464;-85
2021/09/13 04:56:56;;;;;;;807.87;749.70;;;;;;;;;;4998684;28;20828;-85
2021/09/13 04:59:23;;;;;;;832.63;775.33;;;;;;;;;;5004048;28;20484;-86
2021/09/13 05:01:50;;;;;;;1999.90;999.90;;;;;;;;;;5005220;28;20834;-86
2021/09/13 05:04:17;;;;;;;1999.90;999.90;;;;;;;;;;4995528;28;20457;-85
2021/09/13 05:06:46;;;;;;;1999.90;999.90;;;;;;;;;;5015821;28;20847;-89
2021/09/13 05:09:36;;;;;;;1999.90;999.90;;;;;;;;;;5012554;28;20501;-88
2021/09/13 05:12:04;;;;;;;1999.90;999.90;;;;;;;;;;5013998;28;20483;-90
2021/09/13 05:17:18;;;;;;;1999.90;999.90;;;;;;;;;;4980309;28;20460;-87
2021/09/13 05:19:45;;;;;;;1999.90;999.90;;;;;;;;;;5013598;28;20471;-86
2021/09/13 05:22:14;;;;;;;1999.90;999.90;;;;;;;;;;5013823;28;20478;-87
2021/09/13 05:24:42;;;;;;;1999.90;999.90;;;;;;;;;;5012138;28;20975;-88
2021/09/13 05:27:14;;;;;;;1999.90;999.90;;;;;;;;;;5012767;28;20470;-89
2021/09/13 05:29:43;;;;;;;1999.90;999.90;;;;;;;;;;5013298;28;20592;-89
2021/09/13 05:32:12;;;;;;;1999.90;999.90;;;;;;;;;;5013168;28;20560;-87
2021/09/13 05:34:39;;;;;;;1999.90;999.90;;;;;;;;;;5012560;28;20461;-88
2021/09/13 05:37:09;;;;;;;1999.90;999.90;;;;;;;;;;5013382;28;20606;-88
2021/09/13 05:42:34;;;;;;;1999.90;999.90;;;;;;;;;;5012082;28;20505;-90
2021/09/13 05:45:10;;;;;;;1999.90;999.90;;;;;;;;;;5013430;28;20519;-89
2021/09/13 05:50:19;;;;;;;1999.90;999.90;;;;;;;;;;5028306;28;20457;-90
2021/09/13 05:52:46;;;;;;;1999.90;999.90;;;;;;;;;;5013411;28;20555;-90
2021/09/13 05:55:22;;;;;;;1999.90;999.90;;;;;;;;;;5013256;28;20463;-89
2021/09/13 05:57:53;;;;;;;1999.90;999.90;;;;;;;;;;5012881;28;20527;-88
2021/09/13 06:00:43;;;;;;;1999.90;999.90;;;;;;;;;;5013152;28;20455;-90
2021/09/13 06:06:02;;;;;;;1999.90;999.90;;;;;;;;;;4982936;28;20576;-91
2021/09/13 06:08:45;;;;;;;1999.90;999.90;;;;;;;;;;5012188;28;20494;-91
2021/09/13 06:14:00;;;;;;;1999.90;999.90;;;;;;;;;;5013308;28;20541;-90
2021/09/13 06:16:28;;;;;;;1999.90;999.90;;;;;;;;;;5013793;28;20454;-91
2021/09/13 06:18:56;;;;;;;1999.90;999.90;;;;;;;;;;5011855;28;21072;-92
2021/09/13 06:21:35;;;;;;;1999.90;999.90;;;;;;;;;;5011091;28;20442;-92
2021/09/13 06:24:02;;;;;;;1999.90;999.90;;;;;;;;;;5011887;28;20475;-92
2021/09/13 06:26:41;;;;;;;1999.90;999.90;;;;;;;;;;5010700;28;20449;-90
2021/09/13 06:29:24;;;;;;;1999.90;999.90;;;;;;;;;;5011194;28;20554;-91
2021/09/13 06:31:59;;;;;;;1999.90;999.90;;;;;;;;;;5011147;28;20473;-92
2021/09/13 06:34:48;;;;;;;1999.90;999.90;;;;;;;;;;5011656;28;20473;-90
2021/09/13 06:37:24;;;;;;;1999.90;999.90;;;;;;;;;;5009277;28;20462;-90
2021/09/13 06:42:43;;;;;;;1999.90;999.90;;;;;;;;;;4949417;29;20453;-92
2021/09/13 06:48:23;;;;;;;1999.90;999.90;;;;;;;;;;4990256;28;20471;-91
2021/09/13 06:50:51;;;;;;;1999.90;999.90;;;;;;;;;;5000333;28;20844;-90
2021/09/13 06:53:18;;;;;;;1999.90;999.90;;;;;;;;;;5019815;28;21045;-92
2021/09/13 06:55:48;;;;;;;1999.90;999.90;;;;;;;;;;5011886;28;20896;-90
2021/09/13 07:00:57;;;;;;;1999.90;999.90;;;;;;;;;;5003466;28;20883;-89
2021/09/13 07:03:35;;;;;;;1999.90;999.90;;;;;;;;;;5014828;28;20955;-88
2021/09/13 07:06:04;;;;;;;1999.90;999.90;;;;;;;;;;5020170;28;20453;-90
2021/09/13 07:09:15;;;;;;;1999.90;999.90;;;;;;;;;;5003959;28;20562;-91
2021/09/13 07:11:46;;;;;;;1999.90;999.90;;;;;;;;;;4957365;28;20473;-90
2021/09/13 07:14:16;;;;;;;1999.90;999.90;;;;;;;;;;5013877;28;20466;-89
2021/09/13 07:16:43;;;;;;;1999.90;999.90;;;;;;;;;;5020744;28;20467;-90
2021/09/13 07:19:12;;;;;;;1999.90;999.90;;;;;;;;;;5013688;28;21302;-89
2021/09/13 07:21:39;;;;;;;1999.90;999.90;;;;;;;;;;5013047;28;20996;-88
2021/09/13 07:24:06;;;;;;;1999.90;999.90;;;;;;;;;;5015007;28;20452;-89
2021/09/13 07:26:45;;;;;;;1999.90;999.90;;;;;;;;;;5014794;28;20496;-88
2021/09/13 07:29:18;;;;;;;1999.90;999.90;;;;;;;;;;5015760;28;20473;-89
2021/09/13 07:31:50;;;;;;;1999.90;999.90;;;;;;;;;;5004459;28;20475;-90
2021/09/13 07:34:36;;;;;;;;;;;;;;;;;;;;;
2021/09/13 07:37:14;;;;;;;1999.90;999.90;;;;;;;;;;5012869;28;20461;-88
2021/09/13 07:40:02;;;;;;;1999.90;999.90;;;;;;;;;;5010350;28;21191;-87
2021/09/13 07:42:35;;;;;;;1999.90;999.90;;;;;;;;;;5027725;28;20465;-90
2021/09/13 07:45:15;;;;;;;1999.90;999.90;;;;;;;;;;5028576;28;20984;-88
2021/09/13 07:47:51;;;;;;;1999.90;999.90;;;;;;;;;;5014031;28;20555;-88
2021/09/13 07:50:24;;;;;;;1999.90;999.90;;;;;;;;;;5013695;28;20999;-90
2021/09/13 07:52:53;;;;;;;1999.90;999.90;;;;;;;;;;5013200;28;20489;-90
2021/09/13 07:55:22;;;;;;;1999.90;999.90;;;;;;;;;;5013555;28;20954;-89
2021/09/13 07:57:51;;;;;;;1999.90;999.90;;;;;;;;;;5013662;28;20593;-88
2021/09/13 08:00:21;;;;;;;1999.90;999.90;;;;;;;;;;5007851;28;20466;-89
2021/09/13 08:03:05;;;;;;;1999.90;999.90;;;;;;;;;;5014134;28;20499;-90
2021/09/13 08:05:39;;;;;;;1999.90;999.90;;;;;;;;;;5014866;28;20474;-90
2021/09/13 08:08:15;;;;;;;1999.90;999.90;;;;;;;;;;5004355;28;20568;-90
2021/09/13 08:10:49;;;;;;;1999.90;999.90;;;;;;;;;;5014025;28;20467;-89
2021/09/13 08:13:22;;;;;;;1999.90;999.90;;;;;;;;;;5013996;28;20575;-90
2021/09/13 08:16:03;;;;;;;1999.90;999.90;;;;;;;;;;5006409;28;20551;-88
2021/09/13 08:18:30;;;;;;;1999.90;999.90;;;;;;;;;;5013408;28;20570;-90
2021/09/13 08:21:29;;;;;;;;;;;;;;;;;;;;;
2021/09/13 08:24:08;;;;;;;1999.90;999.90;;;;;;;;;;4993781;28;20447;-90
2021/09/13 08:29:23;;;;;;;1999.90;999.90;;;;;;;;;;4990107;28;20461;-88
2021/09/13 08:31:53;;;;;;;1999.90;999.90;;;;;;;;;;4994882;28;20481;-87
2021/09/13 08:34:45;;;;;;;1999.90;999.90;;;;;;;;;;4994353;28;20513;-89
2021/09/13 08:37:12;;;;;;;1999.90;999.90;;;;;;;;;;5006683;28;20531;-89
2021/09/13 08:39:42;;;;;;;1999.90;999.90;;;;;;;;;;5012216;28;20535;-89
2021/09/13 08:42:13;;;;;;;1999.90;999.90;;;;;;;;;;5013328;28;20965;-90
2021/09/13 08:44:41;;;;;;;1999.90;999.90;;;;;;;;;;5013658;28;20429;-89
2021/09/13 08:53:17;;;;;;;1999.90;999.90;;;;;;;;;;5009591;28;21049;-89
2021/09/13 08:56:04;;;;;;;1999.90;999.90;;;;;;;;;;5010114;28;21298;-88
2021/09/13 08:58:45;;;;;;;1999.90;999.90;;;;;;;;;;5010271;28;20532;-90
2021/09/13 09:01:22;;;;;;;1999.90;999.90;;;;;;;;;;5008756;28;20465;-91
2021/09/13 09:03:49;;;;;;;1999.90;999.90;;;;;;;;;;5013727;28;20479;-90
2021/09/13 09:06:45;;;;;;;1999.90;999.90;;;;;;;;;;5010920;28;20461;-92
2021/09/13 09:09:13;;;;;;;1999.90;999.90;;;;;;;;;;5001086;28;20556;-89
2021/09/13 09:14:48;;;;;;;1999.90;999.90;;;;;;;;;;4990829;28;20450;-90
2021/09/13 09:17:22;;;;;;;1999.90;999.90;;;;;;;;;;5007069;28;20457;-90
2021/09/13 09:22:34;;;;;;;1999.90;999.90;;;;;;;;;;4992335;28;20451;-89
2021/09/13 09:25:03;;;;;;;1999.90;999.90;;;;;;;;;;4993234;28;20450;-87
2021/09/13 09:27:32;;;;;;;1999.90;999.90;;;;;;;;;;4991595;28;20827;-87
2021/09/13 09:30:11;;;;;;;1999.90;999.90;;;;;;;;;;4992844;28;20483;-88
2021/09/13 09:32:41;;;;;;;1999.90;999.90;;;;;;;;;;4992851;28;20486;-86
2021/09/13 09:35:17;;;;;;;1999.90;999.90;;;;;;;;;;4994259;28;20454;-86
2021/09/13 09:37:44;;;;;;;1999.90;999.90;;;;;;;;;;5011982;28;20450;-90
2021/09/13 09:40:12;;;;;;;1999.90;999.90;;;;;;;;;;5001467;28;20542;-86
2021/09/13 09:42:41;;;;;;;1999.90;999.90;;;;;;;;;;5011212;28;20478;-87
2021/09/13 09:45:25;;;;;;;1999.90;999.90;;;;;;;;;;5011641;28;20449;-88
2021/09/13 09:48:05;;;;;;;1999.90;999.90;;;;;;;;;;5010965;28;20454;-87
2021/09/13 09:50:33;;;;;;;1999.90;999.90;;;;;;;;;;5011210;28;20462;-88
2021/09/13 09:53:14;;;;;;;1999.90;999.90;;;;;;;;;;5028930;28;20497;-87
2021/09/13 09:55:41;;;;;;;1999.90;999.90;;;;;;;;;;5013572;28;20491;-87
2021/09/13 09:58:13;;;;;;;1999.90;999.90;;;;;;;;;;5010464;28;20501;-87
2021/09/13 10:00:40;;;;;;;1999.90;999.90;;;;;;;;;;5009857;28;20457;-87
2021/09/13 10:03:08;;;;;;;1999.90;999.90;;;;;;;;;;5000948;28;20454;-88
2021/09/13 10:05:36;;;;;;;1999.90;999.90;;;;;;;;;;5000343;28;20489;-87
2021/09/13 10:08:04;;;;;;;1999.90;999.90;;;;;;;;;;5016128;28;20453;-88
2021/09/13 10:10:33;;;;;;;1999.90;999.90;;;;;;;;;;5030255;28;20468;-88
2021/09/13 10:13:01;;;;;;;1999.90;999.90;;;;;;;;;;5011838;28;20485;-87
2021/09/13 10:15:30;;;;;;;1999.90;999.90;;;;;;;;;;5012656;28;20461;-88
2021/09/13 10:17:58;;;;;;;1999.90;999.90;;;;;;;;;;5012979;28;20487;-89
2021/09/13 10:20:26;;;;;;;1999.90;999.90;;;;;;;;;;5013603;28;20445;-88
2021/09/13 10:22:55;;;;;;;1999.90;999.90;;;;;;;;;;5012543;28;20453;-87
2021/09/13 10:25:22;;;;;;;1999.90;999.90;;;;;;;;;;5013875;28;20830;-87
2021/09/13 10:27:51;;;;;;;1999.90;999.90;;;;;;;;;;5012868;28;20481;-86
2021/09/13 10:30:21;;;;;;;1999.90;999.90;;;;;;;;;;5012773;28;20453;-88
2021/09/13 10:32:50;;;;;;;1999.90;999.90;;;;;;;;;;5004687;28;20943;-88
2021/09/13 10:35:18;;;;;;;1999.90;999.90;;;;;;;;;;5015392;28;20454;-89
2021/09/13 10:37:46;;;;;;;1999.90;999.90;;;;;;;;;;5013888;28;20465;-89
2021/09/13 10:40:27;;;;;;;1999.90;999.90;;;;;;;;;;5013453;28;20461;-88
2021/09/13 10:42:55;;;;;;;1999.90;999.90;;;;;;;;;;5022339;28;20452;-89
2021/09/13 10:45:27;;;;;;;1999.90;999.90;;;;;;;;;;5028780;28;20536;-89
2021/09/13 10:48:09;;;;;;;1999.90;999.90;;;;;;;;;;5026544;28;20433;-88
2021/09/13 10:50:39;;;;;;;1999.90;999.90;;;;;;;;;;5020388;28;20453;-89
2021/09/13 10:53:31;;;;;;;1999.90;999.90;;;;;;;;;;5021030;28;20489;-83
2021/09/13 10:56:00;;;;;;;1999.90;999.90;;;;;;;;;;5017504;28;20458;-83
2021/09/13 10:58:39;;;;;;;1999.90;999.90;;;;;;;;;;5016654;28;20480;-88
2021/09/13 11:01:09;;;;;;;1999.90;999.90;;;;;;;;;;5016179;28;20465;-87
2021/09/13 11:03:51;;;;;;;1999.90;999.90;;;;;;;;;;5017156;28;20464;-87
2021/09/13 11:06:45;;;;;;;1999.90;999.90;;;;;;;;;;5016216;28;20445;-88
2021/09/13 11:09:18;;;;;;;1999.90;999.90;;;;;;;;;;5015715;28;20466;-89
2021/09/13 11:11:46;;;;;;;1999.90;999.90;;;;;;;;;;5015041;28;20981;-88
2021/09/13 11:14:13;;;;;;;1999.90;999.90;;;;;;;;;;5014593;28;20596;-89
2021/09/13 11:16:41;;;;;;;1999.90;999.90;;;;;;;;;;5014931;28;20537;-89
2021/09/13 11:19:10;;;;;;;1999.90;999.90;;;;;;;;;;5016623;28;20476;-89
2021/09/13 11:21:38;;;;;;;1999.90;999.90;;;;;;;;;;5015025;28;20504;-88
2021/09/13 11:24:06;;;;;;;1999.90;999.90;;;;;;;;;;5015153;28;20453;-88
2021/09/13 11:26:34;;;;;;;1999.90;999.90;;;;;;;;;;5016015;28;20454;-89
2021/09/13 11:29:02;;;;;;;1999.90;999.90;;;;;;;;;;5023843;28;20483;-89
2021/09/13 11:31:31;;;;;;;1999.90;999.90;;;;;;;;;;5021678;28;20454;-89
2021/09/13 11:33:59;;;;;;;1999.90;999.90;;;;;;;;;;5006114;28;20483;-87
2021/09/13 11:36:28;;;;;;;1999.90;999.90;;;;;;;;;;5007776;28;20454;-88
2021/09/13 11:38:56;;;;;;;1999.90;999.90;;;;;;;;;;5013649;28;20473;-90
2021/09/13 11:41:23;;;;;;;1999.90;999.90;;;;;;;;;;5013899;28;20480;-89
2021/09/13 11:43:57;;;;;;;1999.90;999.90;;;;;;;;;;5013457;28;20837;-88
2021/09/13 11:46:24;;;;;;;1999.90;999.90;;;;;;;;;;5013262;28;20453;-88
2021/09/13 11:48:51;;;;;;;1999.90;999.90;;;;;;;;;;5015841;28;20484;-90
2021/09/13 11:51:20;;;;;;;1999.90;999.90;;;;;;;;;;5015684;28;20483;-89
2021/09/13 11:54:02;;;;;;;1999.90;999.90;;;;;;;;;;5013756;28;20520;-89
2021/09/13 11:56:30;;;;;;;1999.90;999.90;;;;;;;;;;5011748;28;20446;-88
2021/09/13 11:58:57;;;;;;;1999.90;999.90;;;;;;;;;;5013202;28;20472;-86
2021/09/13 12:01:25;;;;;;;1999.90;999.90;;;;;;;;;;5009945;28;20834;-88
2021/09/13 12:03:52;;;;;;;1999.90;999.90;;;;;;;;;;5013867;28;20484;-88
2021/09/13 12:06:19;;;;;;;1999.90;999.90;;;;;;;;;;5012981;28;20468;-89
2021/09/13 12:08:46;;;;;;;1999.90;999.90;;;;;;;;;;5013188;28;20488;-89
2021/09/13 12:11:14;;;;;;;1999.90;999.90;;;;;;;;;;5012911;28;20460;-88
2021/09/13 12:13:44;;;;;;;1999.90;999.90;;;;;;;;;;4996467;28;20485;-88
2021/09/13 12:16:14;;;;;;;1999.90;999.90;;;;;;;;;;5012367;28;20454;-89
2021/09/13 12:18:41;;;;;;;1999.90;999.90;;;;;;;;;;5011688;28;20480;-89
2021/09/13 12:21:17;;;;;;;1999.90;999.90;;;;;;;;;;5013386;28;20460;-89
2021/09/13 12:23:46;;;;;;;1999.90;999.90;;;;;;;;;;5003877;28;20453;-89
2021/09/13 12:26:26;;;;;;;1999.90;999.90;;;;;;;;;;5013346;28;20462;-89
2021/09/13 12:28:55;;;;;;;1999.90;999.90;;;;;;;;;;5025205;28;21036;-89
2021/09/13 12:31:27;;;;;;;1999.90;999.90;;;;;;;;;;5017823;28;20446;-88
2021/09/13 12:34:03;;;;;;;1999.90;999.90;;;;;;;;;;5012829;28;20559;-89
2021/09/13 12:36:30;;;;;;;355.07;328.53;;;;;;;;;;5013887;28;20488;-87
2021/09/13 12:38:58;;;;;;;1999.90;999.90;;;;;;;;;;5015857;28;20485;-87
2021/09/13 12:41:31;;;;;;;1999.90;999.90;;;;;;;;;;5014100;28;20471;-86
2021/09/13 12:44:00;;;;;;;1999.90;999.90;;;;;;;;;;5014474;28;20536;-86
2021/09/13 12:46:28;;;;;;;1999.90;999.90;;;;;;;;;;5013801;28;20523;-89
2021/09/13 12:49:01;;;;;;;1999.90;999.90;;;;;;;;;;5012015;28;20503;-90
2021/09/13 12:51:29;;;;;;;1999.90;999.90;;;;;;;;;;5012966;28;20809;-88
2021/09/13 12:53:59;;;;;;;1999.90;999.90;;;;;;;;;;5011681;28;20485;-90
2021/09/13 12:56:27;;;;;;;1999.90;999.90;;;;;;;;;;4997271;28;20481;-90
2021/09/13 12:59:08;;;;;;;1999.90;999.90;;;;;;;;;;5013063;28;20478;-89
2021/09/13 13:01:38;;;;;;;1999.90;999.90;;;;;;;;;;5012470;28;20466;-90
2021/09/13 13:04:06;;;;;;;1999.90;999.90;;;;;;;;;;5010961;28;20484;-89
2021/09/13 13:06:34;;;;;;;1999.90;999.90;;;;;;;;;;5014447;28;20462;-88
2021/09/13 13:09:01;;;;;;;1999.90;999.90;;;;;;;;;;5019823;28;20478;-92
2021/09/13 13:11:28;;;;;;;1999.90;999.90;;;;;;;;;;5016816;28;20453;-89
2021/09/13 13:13:56;;;;;;;1999.90;999.90;;;;;;;;;;5013633;28;20496;-89
2021/09/13 13:16:33;;;;;;;1999.90;999.90;;;;;;;;;;5013405;28;20458;-87
2021/09/13 13:19:01;;;;;;;1999.90;999.90;;;;;;;;;;5019479;28;20469;-87
2021/09/13 13:21:29;;;;;;;1999.90;999.90;;;;;;;;;;5013560;28;20481;-87
2021/09/13 13:23:56;;;;;;;1999.90;999.90;;;;;;;;;;5014554;28;20453;-87
2021/09/13 13:26:23;;;;;;;1999.90;999.90;;;;;;;;;;5036614;28;20446;-89
2021/09/13 13:28:50;;;;;;;1999.90;999.90;;;;;;;;;;5024786;28;20484;-86
2021/09/13 13:31:17;;;;;;;1999.90;999.90;;;;;;;;;;5021294;28;20968;-87
2021/09/13 13:33:45;;;;;;;1999.90;999.90;;;;;;;;;;5013033;28;20486;-86
2021/09/13 13:36:15;;;;;;;1999.90;999.90;;;;;;;;;;5011540;28;20462;-86
2021/09/13 13:38:42;;;;;;;1999.90;999.90;;;;;;;;;;5011118;28;20469;-88
2021/09/13 13:41:09;;;;;;;1999.90;999.90;;;;;;;;;;5011314;28;20469;-86
2021/09/13 13:43:36;;;;;;;1999.90;999.90;;;;;;;;;;5011101;28;21112;-88
2021/09/13 13:46:03;;;;;;;1999.90;999.90;;;;;;;;;;5012318;28;20458;-89
2021/09/13 13:48:31;;;;;;;1999.90;999.90;;;;;;;;;;5012488;28;20493;-89
2021/09/13 13:50:58;;;;;;;1999.90;999.90;;;;;;;;;;5011764;28;20544;-86
2021/09/13 13:53:26;;;;;;;225.80;209.13;;;;;;;;;;5012534;28;21023;-90
2021/09/13 13:55:53;;;;;;;1999.90;999.90;;;;;;;;;;5014682;28;20457;-86
2021/09/13 13:58:20;;;;;;;1999.90;999.90;;;;;;;;;;5015844;28;20484;-86
2021/09/13 14:00:50;;;;;;;1999.90;999.90;;;;;;;;;;5014710;28;20472;-87
2021/09/13 14:03:17;;;;;;;1999.90;999.90;;;;;;;;;;5055587;22;20491;-81
2021/09/13 14:05:45;;;;;;;1999.90;999.90;;;;;;;;;;5042991;28;20452;-81
2021/09/13 14:08:13;;;;;;;182.13;166.87;;;;;;;;;;5059910;28;20477;-81
2021/09/13 14:10:42;;;;;;;1999.90;999.90;;;;;;;;;;5058277;28;20448;-81
2021/09/13 14:13:09;;;;;;;224.43;207.37;;;;;;;;;;5058358;28;20551;-81
2021/09/13 14:15:36;;;;;;;154.47;140.40;;;;;;;;;;5056645;28;20455;-81
2021/09/13 14:18:03;;;;;;;1999.90;999.90;;;;;;;;;;5045286;28;20452;-81
2021/09/13 14:20:30;;;;;;;1999.90;999.90;;;;;;;;;;5048445;28;20453;-81
2021/09/13 14:22:57;;;;;;;1999.90;999.90;;;;;;;;;;5059268;28;20464;-84
2021/09/13 14:25:25;;;;;;;1999.90;999.90;;;;;;;;;;5059770;28;20451;-83
2021/09/13 14:27:53;;;;;;;1999.90;999.90;;;;;;;;;;5053194;28;20513;-81
2021/09/13 14:30:21;;;;;;;1999.90;999.90;;;;;;;;;;5042050;28;20454;-83
2021/09/13 14:32:48;;;;;;;1999.90;999.90;;;;;;;;;;5039452;28;20473;-82
2021/09/13 14:35:15;;;;;;;1999.90;999.90;;;;;;;;;;5056266;28;20487;-83
2021/09/13 14:37:42;;;;;;;1410.70;738.47;;;;;;;;;;5057148;28;20455;-83